Time;durP1;ratioP1;P1;durP2;ratioP2;P2;SDS_P1;SDS_P2;PMS_P1;PMS_P2;Temp;Humidity;BMP_temperature;BMP_pressure;BME280_temperature;BME280_humidity;BME280_pressure;Samples;Min_cycle;Max_cycle;Signal;HPM_P1;HPM_P2
2023/04/13 00:02:02;;;;;;;1.10;0.80;;;8.20;79.90;;;;;;4996724;28;20422;-71
2023/04/13 00:04:30;;;;;;;3.67;1.20;;;8.20;79.50;;;;;;4994929;28;20631;-74
2023/04/13 00:06:57;;;;;;;1.80;0.93;;;8.20;80.20;;;;;;4984280;28;20217;-71
2023/04/13 00:09:24;;;;;;;1.40;0.73;;;8.20;80.50;;;;;;4995200;28;20440;-72
2023/04/13 00:11:50;;;;;;;1.67;0.90;;;8.20;80.30;;;;;;4992610;28;20456;-71
2023/04/13 00:14:17;;;;;;;1.23;0.87;;;8.20;80.50;;;;;;4987811;28;20477;-71
2023/04/13 00:16:45;;;;;;;1.60;0.77;;;8.10;80.50;;;;;;4982517;28;20622;-72
2023/04/13 00:19:11;;;;;;;1.33;0.80;;;8.10;80.50;;;;;;4987123;28;20491;-72
2023/04/13 00:21:40;;;;;;;0.80;0.63;;;8.00;80.60;;;;;;4985649;28;20929;-73
2023/04/13 00:24:06;;;;;;;1.20;0.73;;;8.00;81.20;;;;;;4981280;28;20249;-72
2023/04/13 00:26:32;;;;;;;1.20;0.80;;;7.90;81.70;;;;;;4977246;28;21008;-73
2023/04/13 00:28:58;;;;;;;1.20;0.80;;;7.90;81.90;;;;;;4987692;28;20480;-74
2023/04/13 00:31:23;;;;;;;2.40;0.70;;;7.90;82.40;;;;;;4987695;28;20314;-72
2023/04/13 00:33:49;;;;;;;0.97;0.70;;;7.80;82.50;;;;;;4984174;28;20265;-71
2023/04/13 00:36:15;;;;;;;1.50;0.90;;;7.80;82.40;;;;;;4983479;28;20565;-73
2023/04/13 00:38:43;;;;;;;4.50;0.90;;;7.80;82.50;;;;;;4990106;28;20211;-72
2023/04/13 00:41:11;;;;;;;1.60;1.00;;;7.80;82.10;;;;;;4982727;28;20431;-73
2023/04/13 00:43:37;;;;;;;2.07;0.83;;;7.80;81.90;;;;;;4987937;28;20433;-72
2023/04/13 00:46:04;;;;;;;1.33;0.87;;;7.90;82.10;;;;;;4980638;28;20553;-72
2023/04/13 00:48:30;;;;;;;1.40;0.80;;;7.90;81.80;;;;;;4983258;28;20430;-72
2023/04/13 00:50:56;;;;;;;0.87;0.77;;;8.00;81.20;;;;;;4985137;28;20848;-72
2023/04/13 00:53:22;;;;;;;1.07;1.00;;;8.00;81.40;;;;;;4986322;28;20477;-73
2023/04/13 00:55:48;;;;;;;0.90;0.80;;;7.90;81.70;;;;;;4977623;28;20465;-72
2023/04/13 00:58:14;;;;;;;2.27;0.83;;;7.90;79.20;;;;;;4984954;28;20427;-73
2023/04/13 01:00:41;;;;;;;1.53;0.90;;;7.90;77.80;;;;;;4980207;28;20435;-71
2023/04/13 01:03:08;;;;;;;1.50;0.90;;;7.90;78.90;;;;;;4983996;28;20190;-71
2023/04/13 01:05:49;;;;;;;1.40;0.80;;;7.90;79.50;;;;;;4976561;28;20474;-74
2023/04/13 01:08:21;;;;;;;3.40;0.90;;;7.90;79.60;;;;;;4982821;28;20509;-73
2023/04/13 01:10:58;;;;;;;3.80;0.90;;;7.90;78.60;;;;;;4980514;28;21126;-71
2023/04/13 01:13:23;;;;;;;2.43;0.90;;;7.80;77.70;;;;;;4980159;28;20473;-73
2023/04/13 01:16:07;;;;;;;2.13;0.90;;;7.80;78.00;;;;;;4972924;28;20461;-71
2023/04/13 01:18:37;;;;;;;2.93;0.80;;;7.80;77.70;;;;;;4977921;28;20622;-71
2023/04/13 01:21:04;;;;;;;3.33;0.70;;;7.80;77.60;;;;;;4983653;28;20529;-73
2023/04/13 01:23:50;;;;;;;1.77;1.00;;;7.80;77.70;;;;;;4981146;28;20534;-71
2023/04/13 01:26:16;;;;;;;0.93;0.87;;;7.70;77.40;;;;;;4978088;28;20466;-73
2023/04/13 01:28:42;;;;;;;1.83;0.73;;;7.70;77.00;;;;;;4984839;28;20430;-72
2023/04/13 01:31:10;;;;;;;3.30;1.00;;;7.70;76.80;;;;;;4985926;28;20438;-72
2023/04/13 01:33:39;;;;;;;2.33;0.90;;;7.70;77.10;;;;;;4977244;28;20517;-74
2023/04/13 01:36:05;;;;;;;1.43;0.90;;;7.70;77.10;;;;;;4976502;28;20461;-72
2023/04/13 01:38:31;;;;;;;3.10;0.90;;;7.60;77.40;;;;;;4979678;28;20439;-72
2023/04/13 01:40:57;;;;;;;1.33;0.70;;;7.60;78.10;;;;;;4983979;28;20449;-72
2023/04/13 01:43:23;;;;;;;3.23;0.70;;;7.50;79.00;;;;;;4981020;28;20783;-72
2023/04/13 01:46:08;;;;;;;1.70;1.10;;;7.40;79.70;;;;;;4976922;28;20646;-73
2023/04/13 01:48:47;;;;;;;2.07;1.00;;;7.40;79.70;;;;;;4981181;28;20422;-73
2023/04/13 01:51:17;;;;;;;2.47;0.70;;;7.30;80.00;;;;;;4981902;28;20426;-73
2023/04/13 01:53:52;;;;;;;2.23;0.80;;;7.30;79.90;;;;;;4982808;28;20472;-73
2023/04/13 01:56:18;;;;;;;1.80;0.90;;;7.30;80.80;;;;;;4977800;28;20891;-71
2023/04/13 01:58:48;;;;;;;2.07;1.00;;;7.30;81.90;;;;;;4988334;28;20418;-71
2023/04/13 02:01:14;;;;;;;2.63;1.00;;;7.20;81.80;;;;;;4976198;28;20784;-72
2023/04/13 02:03:42;;;;;;;1.77;1.07;;;7.20;81.50;;;;;;4992875;28;20906;-73
2023/04/13 02:06:08;;;;;;;1.43;0.93;;;7.10;80.90;;;;;;4968318;28;20987;-72
2023/04/13 02:08:35;;;;;;;2.30;1.00;;;7.10;80.60;;;;;;4986000;28;20453;-72
2023/04/13 02:11:02;;;;;;;2.20;0.93;;;7.20;80.30;;;;;;4985855;28;20461;-72
2023/04/13 02:13:29;;;;;;;4.50;2.10;;;7.20;81.10;;;;;;4985359;28;20465;-73
2023/04/13 02:15:55;;;;;;;5.90;2.90;;;7.30;81.70;;;;;;4977518;28;20453;-72
2023/04/13 02:18:22;;;;;;;2.27;1.20;;;7.30;81.90;;;;;;4985930;28;20450;-71
2023/04/13 02:21:08;;;;;;;4.93;1.20;;;7.40;81.70;;;;;;4975621;28;20428;-71
2023/04/13 02:23:35;;;;;;;2.70;1.10;;;7.40;80.80;;;;;;4985835;28;20795;-72
2023/04/13 02:26:01;;;;;;;1.83;1.07;;;7.40;79.90;;;;;;4970352;28;20834;-73
2023/04/13 02:28:30;;;;;;;1.53;0.93;;;7.50;80.20;;;;;;4977406;28;20427;-72
2023/04/13 02:31:01;;;;;;;1.47;0.90;;;7.60;80.20;;;;;;4982004;28;20929;-71
2023/04/13 02:33:30;;;;;;;1.63;1.20;;;7.60;78.60;;;;;;4981149;28;20493;-72
2023/04/13 02:36:01;;;;;;;1.77;1.20;;;7.60;78.90;;;;;;4969382;28;20473;-72
2023/04/13 02:38:27;;;;;;;1.50;1.00;;;7.70;79.60;;;;;;4986712;28;20450;-70
2023/04/13 02:41:00;;;;;;;4.40;1.07;;;7.60;79.20;;;;;;4983303;28;20426;-72
2023/04/13 02:43:25;;;;;;;5.73;1.00;;;7.70;79.20;;;;;;4976872;28;20622;-72
2023/04/13 02:45:51;;;;;;;1.53;0.90;;;7.70;79.00;;;;;;4972999;28;20469;-73
2023/04/13 02:48:18;;;;;;;1.40;0.97;;;7.70;78.40;;;;;;4976545;28;20222;-71
2023/04/13 02:50:44;;;;;;;1.10;0.80;;;7.70;78.30;;;;;;4982407;28;20928;-70
2023/04/13 02:53:09;;;;;;;2.40;1.00;;;7.60;78.60;;;;;;4974142;28;20466;-71
2023/04/13 02:55:35;;;;;;;1.00;0.93;;;7.60;78.90;;;;;;4975132;28;20269;-71
2023/04/13 02:58:03;;;;;;;2.10;0.87;;;7.50;78.90;;;;;;4979145;28;20186;-71
2023/04/13 03:00:29;;;;;;;2.90;1.53;;;7.50;78.00;;;;;;4987091;28;20201;-72
2023/04/13 03:02:55;;;;;;;2.30;1.00;;;7.50;78.10;;;;;;4984058;28;20827;-71
2023/04/13 03:05:20;;;;;;;1.73;0.93;;;7.50;78.60;;;;;;4978042;28;20476;-71
2023/04/13 03:07:46;;;;;;;2.50;1.30;;;7.40;79.00;;;;;;4978557;28;20501;-71
2023/04/13 03:10:12;;;;;;;1.00;0.70;;;7.40;79.20;;;;;;4985420;28;20213;-71
2023/04/13 03:12:38;;;;;;;1.80;0.97;;;7.40;79.60;;;;;;4985530;28;20213;-71
2023/04/13 03:15:09;;;;;;;1.73;1.27;;;7.40;79.20;;;;;;4979479;28;20494;-71
2023/04/13 03:17:39;;;;;;;1.40;0.97;;;7.40;79.30;;;;;;4981500;28;20274;-71
2023/04/13 03:20:09;;;;;;;2.00;0.90;;;7.30;79.50;;;;;;4976712;28;20937;-71
2023/04/13 03:22:35;;;;;;;2.73;1.23;;;7.30;79.50;;;;;;4979505;28;20450;-71
2023/04/13 03:25:01;;;;;;;7.03;1.10;;;7.20;79.60;;;;;;4974751;28;20498;-71
2023/04/13 03:27:27;;;;;;;3.97;1.20;;;7.20;80.00;;;;;;4979574;28;20206;-73
2023/04/13 03:29:52;;;;;;;1.40;1.00;;;7.20;79.70;;;;;;4983588;28;20418;-71
2023/04/13 03:32:18;;;;;;;1.57;1.17;;;7.20;80.00;;;;;;4983823;28;20293;-73
2023/04/13 03:34:44;;;;;;;2.90;1.57;;;7.20;80.00;;;;;;4980167;28;20591;-71
2023/04/13 03:37:10;;;;;;;2.33;1.13;;;7.20;79.70;;;;;;4979560;28;20429;-72
2023/04/13 03:39:36;;;;;;;3.13;0.90;;;7.20;79.70;;;;;;4979371;28;20195;-73
2023/04/13 03:42:02;;;;;;;1.20;1.00;;;7.20;79.50;;;;;;4984753;28;20429;-72
2023/04/13 03:44:29;;;;;;;2.87;1.03;;;7.20;79.30;;;;;;4980576;28;20480;-73
2023/04/13 03:46:55;;;;;;;1.87;1.20;;;7.20;79.20;;;;;;4980535;28;20611;-72
2023/04/13 03:49:20;;;;;;;3.57;1.30;;;7.20;78.90;;;;;;4988392;28;20560;-72
2023/04/13 03:51:46;;;;;;;1.67;1.00;;;7.20;79.00;;;;;;4988687;28;20179;-72
2023/04/13 03:54:12;;;;;;;1.90;1.60;;;7.20;79.30;;;;;;4981629;28;20609;-71
2023/04/13 03:56:37;;;;;;;3.27;1.17;;;7.20;79.50;;;;;;4984619;28;20682;-71
2023/04/13 03:59:03;;;;;;;2.03;1.17;;;7.20;79.00;;;;;;4998609;28;20189;-71
2023/04/13 04:01:29;;;;;;;1.97;1.10;;;7.30;78.70;;;;;;4999421;28;20187;-71
2023/04/13 04:03:56;;;;;;;5.37;1.40;;;7.40;78.40;;;;;;4999166;28;20178;-73
2023/04/13 04:06:22;;;;;;;3.23;1.63;;;7.40;78.10;;;;;;4995348;28;20234;-72
2023/04/13 04:08:48;;;;;;;2.30;1.27;;;7.40;78.00;;;;;;4999440;28;20560;-73
2023/04/13 04:11:15;;;;;;;3.80;1.20;;;7.40;77.80;;;;;;4994015;28;20437;-71
2023/04/13 04:13:41;;;;;;;2.07;1.20;;;7.40;77.80;;;;;;4985934;28;20821;-71
2023/04/13 04:16:07;;;;;;;1.77;1.10;;;7.40;78.00;;;;;;4980572;28;20465;-71
2023/04/13 04:18:33;;;;;;;2.93;1.30;;;7.50;77.70;;;;;;4979993;28;20187;-72
2023/04/13 04:21:01;;;;;;;4.43;1.40;;;7.50;77.40;;;;;;4985898;28;20424;-72
2023/04/13 04:23:27;;;;;;;3.60;1.10;;;7.40;77.30;;;;;;4980099;28;20979;-71
2023/04/13 04:25:53;;;;;;;1.90;1.13;;;7.40;77.30;;;;;;4978360;28;20489;-71
2023/04/13 04:28:19;;;;;;;12.43;1.70;;;7.40;77.00;;;;;;4980203;28;20432;-71
2023/04/13 04:30:52;;;;;;;1.80;1.13;;;7.40;76.40;;;;;;4987916;28;20536;-71
2023/04/13 04:33:21;;;;;;;4.70;1.30;;;7.40;75.50;;;;;;4991931;28;20260;-73
2023/04/13 04:35:50;;;;;;;2.50;1.50;;;7.40;74.20;;;;;;4968579;28;20490;-71
2023/04/13 04:38:16;;;;;;;3.70;1.20;;;7.50;74.30;;;;;;4988000;28;20485;-71
2023/04/13 04:40:44;;;;;;;1.30;1.00;;;7.50;74.80;;;;;;4976656;28;21021;-72
2023/04/13 04:43:13;;;;;;;1.83;1.27;;;7.50;74.60;;;;;;4986304;28;20508;-73
2023/04/13 04:45:42;;;;;;;5.03;1.30;;;7.50;74.80;;;;;;4978457;28;20489;-73
2023/04/13 04:48:14;;;;;;;2.37;1.20;;;7.40;74.90;;;;;;4985237;28;20932;-72
2023/04/13 04:50:43;;;;;;;3.03;1.50;;;7.40;75.40;;;;;;4988133;28;20783;-71
2023/04/13 04:53:11;;;;;;;6.47;1.23;;;7.40;75.20;;;;;;4987838;28;20466;-71
2023/04/13 04:55:38;;;;;;;2.30;1.27;;;7.30;75.50;;;;;;4982327;28;20972;-71
2023/04/13 04:58:03;;;;;;;3.50;1.40;;;7.30;75.80;;;;;;4987601;28;20414;-72
2023/04/13 05:00:30;;;;;;;5.07;1.40;;;7.30;76.10;;;;;;4982535;28;20877;-72
2023/04/13 05:02:56;;;;;;;4.30;1.53;;;7.30;75.90;;;;;;4986354;28;20221;-71
2023/04/13 05:05:23;;;;;;;5.23;1.47;;;7.30;75.80;;;;;;4971684;28;20467;-71
2023/04/13 05:07:49;;;;;;;2.23;1.30;;;7.30;75.80;;;;;;4983691;28;20934;-72
2023/04/13 05:10:15;;;;;;;3.30;1.37;;;7.40;75.80;;;;;;4982621;28;20419;-72
2023/04/13 05:12:40;;;;;;;5.07;1.47;;;7.40;75.50;;;;;;4983039;28;20234;-72
2023/04/13 05:15:07;;;;;;;5.53;1.33;;;7.30;75.50;;;;;;4977636;28;20218;-73
2023/04/13 05:17:33;;;;;;;2.50;1.00;;;7.30;75.40;;;;;;4984262;28;20179;-71
2023/04/13 05:19:59;;;;;;;3.20;1.60;;;7.40;75.20;;;;;;4985138;28;20429;-72
2023/04/13 05:22:24;;;;;;;5.33;2.20;;;7.40;75.10;;;;;;4979099;28;20517;-72
2023/04/13 05:24:50;;;;;;;5.67;2.17;;;7.40;74.80;;;;;;4978755;28;20310;-73
2023/04/13 05:27:16;;;;;;;5.10;1.40;;;7.40;74.20;;;;;;4978866;28;20522;-72
2023/04/13 05:29:41;;;;;;;6.30;2.27;;;7.50;74.50;;;;;;4982313;28;20249;-71
2023/04/13 05:32:07;;;;;;;2.60;1.53;;;7.50;74.30;;;;;;4984387;28;20834;-73
2023/04/13 05:34:34;;;;;;;2.50;1.67;;;7.40;74.50;;;;;;4983935;28;20215;-71
2023/04/13 05:37:00;;;;;;;3.77;1.37;;;7.40;74.30;;;;;;4984653;28;20271;-71
2023/04/13 05:39:26;;;;;;;9.70;1.70;;;7.40;74.30;;;;;;4984810;28;20444;-72
2023/04/13 05:41:51;;;;;;;3.40;1.40;;;7.40;74.30;;;;;;4979237;28;20699;-72
2023/04/13 05:44:17;;;;;;;2.33;1.40;;;7.50;74.20;;;;;;4985783;28;20440;-73
2023/04/13 05:46:43;;;;;;;2.90;1.33;;;7.50;74.30;;;;;;4977939;28;20255;-72
2023/04/13 05:49:09;;;;;;;7.73;1.60;;;7.50;74.20;;;;;;4980819;28;20654;-72
2023/04/13 05:51:35;;;;;;;2.60;1.33;;;7.50;73.90;;;;;;4981186;28;20183;-71
2023/04/13 05:54:01;;;;;;;5.13;1.63;;;7.40;73.90;;;;;;4976100;28;20462;-71
2023/04/13 05:56:28;;;;;;;4.23;1.50;;;7.50;74.00;;;;;;4972747;28;20199;-72
2023/04/13 05:58:54;;;;;;;5.17;1.60;;;7.50;73.90;;;;;;4973406;28;20179;-71
2023/04/13 06:01:22;;;;;;;5.73;1.30;;;7.50;73.70;;;;;;4981236;28;20422;-72
2023/04/13 06:03:47;;;;;;;5.40;1.40;;;7.50;73.90;;;;;;4978644;28;20502;-71
2023/04/13 06:06:16;;;;;;;6.83;1.60;;;7.60;73.50;;;;;;4982285;28;20500;-71
2023/04/13 06:08:42;;;;;;;3.60;1.30;;;7.60;73.20;;;;;;4980391;28;20191;-72
2023/04/13 06:11:08;;;;;;;2.50;1.30;;;7.60;72.90;;;;;;4986143;28;20425;-72
2023/04/13 06:13:37;;;;;;;3.07;1.07;;;7.70;73.20;;;;;;4987654;28;20468;-74
2023/04/13 06:16:03;;;;;;;4.83;1.50;;;7.70;73.00;;;;;;4977784;28;20568;-72
2023/04/13 06:18:28;;;;;;;5.93;1.63;;;7.70;72.90;;;;;;4987032;28;20426;-73
2023/04/13 06:20:56;;;;;;;4.10;1.73;;;7.80;72.60;;;;;;4982341;28;20185;-71
2023/04/13 06:23:22;;;;;;;3.00;1.40;;;7.80;72.60;;;;;;4985876;28;20179;-73
2023/04/13 06:25:48;;;;;;;4.60;2.00;;;7.70;72.40;;;;;;4972540;28;20465;-72
2023/04/13 06:28:14;;;;;;;4.97;1.40;;;7.70;72.40;;;;;;4980778;28;20195;-73
2023/04/13 06:30:39;;;;;;;2.27;1.47;;;7.70;72.30;;;;;;4982710;28;20551;-73
2023/04/13 06:33:05;;;;;;;2.50;1.17;;;7.70;72.40;;;;;;4985008;28;20461;-73
2023/04/13 06:35:32;;;;;;;2.93;1.33;;;7.70;72.70;;;;;;4977087;28;20217;-72
2023/04/13 06:37:59;;;;;;;4.50;1.53;;;7.70;72.70;;;;;;4982014;28;20603;-73
2023/04/13 06:40:26;;;;;;;3.50;1.57;;;7.60;72.70;;;;;;4982572;28;20419;-72
2023/04/13 06:42:52;;;;;;;3.97;1.60;;;7.70;72.60;;;;;;4976603;28;20984;-72
2023/04/13 06:45:18;;;;;;;7.97;1.50;;;7.70;72.60;;;;;;4973796;28;20490;-73
2023/04/13 06:47:43;;;;;;;3.30;1.37;;;7.80;72.40;;;;;;4979309;28;20835;-72
2023/04/13 06:50:12;;;;;;;2.67;1.70;;;7.70;72.10;;;;;;4982615;28;20656;-72
2023/04/13 06:52:40;;;;;;;4.70;1.50;;;7.80;72.30;;;;;;4978212;28;20238;-72
2023/04/13 06:55:06;;;;;;;4.13;1.30;;;7.80;72.10;;;;;;4980226;28;20470;-73
2023/04/13 06:57:32;;;;;;;5.13;2.00;;;7.90;72.10;;;;;;4983398;28;21181;-72
2023/04/13 06:59:58;;;;;;;7.97;1.80;;;8.10;71.80;;;;;;4983290;28;20765;-73
2023/04/13 07:02:25;;;;;;;4.40;1.30;;;8.20;71.40;;;;;;4981816;28;20505;-72
2023/04/13 07:04:51;;;;;;;3.27;1.60;;;8.30;71.30;;;;;;4982981;28;20214;-73
2023/04/13 07:07:19;;;;;;;13.30;1.63;;;8.30;70.70;;;;;;4978815;28;20417;-73
2023/04/13 07:09:45;;;;;;;3.80;1.33;;;8.40;70.80;;;;;;4981004;28;20171;-72
2023/04/13 07:12:11;;;;;;;6.30;2.17;;;8.40;70.80;;;;;;4984066;28;20410;-72
2023/04/13 07:14:38;;;;;;;3.13;1.70;;;8.40;70.40;;;;;;4979511;28;20481;-72
2023/04/13 07:17:04;;;;;;;7.27;1.80;;;8.50;70.40;;;;;;4981648;28;20183;-72
2023/04/13 07:19:30;;;;;;;3.10;1.30;;;8.50;70.40;;;;;;4981253;28;20530;-72
2023/04/13 07:21:58;;;;;;;3.97;1.57;;;8.50;70.10;;;;;;4982250;28;20637;-72
2023/04/13 07:24:26;;;;;;;5.83;1.77;;;8.40;70.40;;;;;;4976783;28;20423;-72
2023/04/13 07:26:52;;;;;;;5.70;1.67;;;8.50;70.50;;;;;;4976195;28;20524;-72
2023/04/13 07:29:18;;;;;;;4.37;1.63;;;8.50;70.40;;;;;;4982845;28;20904;-72
2023/04/13 07:31:43;;;;;;;3.47;1.70;;;8.60;70.40;;;;;;4984901;28;20422;-72
2023/04/13 07:34:09;;;;;;;7.00;2.00;;;8.60;70.80;;;;;;4982073;28;20214;-72
2023/04/13 07:36:35;;;;;;;7.20;2.00;;;8.70;70.50;;;;;;4980273;28;20206;-72
2023/04/13 07:39:02;;;;;;;5.07;2.17;;;8.70;70.20;;;;;;4984371;28;20259;-72
2023/04/13 07:41:31;;;;;;;4.97;1.90;;;8.70;70.40;;;;;;4987295;28;20501;-72
2023/04/13 07:43:56;;;;;;;5.97;1.43;;;8.70;70.40;;;;;;4976365;28;20423;-72
2023/04/13 07:46:25;;;;;;;5.60;1.67;;;8.60;70.50;;;;;;4975140;28;20589;-72
2023/04/13 07:48:56;;;;;;;4.83;1.37;;;8.50;70.20;;;;;;4976406;28;20195;-72
2023/04/13 07:51:22;;;;;;;3.10;1.37;;;8.50;71.00;;;;;;4981375;28;20940;-72
2023/04/13 07:53:51;;;;;;;4.33;1.53;;;8.60;71.10;;;;;;4985835;28;20559;-72
2023/04/13 07:56:16;;;;;;;3.80;1.40;;;8.70;70.80;;;;;;4978228;28;20226;-73
2023/04/13 07:58:42;;;;;;;3.07;1.40;;;8.80;71.70;;;;;;4983427;28;20422;-73
2023/04/13 08:01:08;;;;;;;6.40;1.77;;;8.90;72.00;;;;;;4984714;28;20183;-72
2023/04/13 08:03:34;;;;;;;5.77;1.87;;;8.90;71.70;;;;;;4986410;28;20217;-73
2023/04/13 08:06:00;;;;;;;4.13;1.87;;;8.80;71.10;;;;;;4975565;28;20992;-72
2023/04/13 08:08:28;;;;;;;3.57;1.50;;;8.80;71.30;;;;;;4979837;28;20430;-72
2023/04/13 08:10:54;;;;;;;8.17;1.77;;;8.80;71.40;;;;;;4986776;28;20468;-73
2023/04/13 08:13:20;;;;;;;4.57;1.67;;;8.80;71.40;;;;;;4977519;28;20466;-72
2023/04/13 08:15:46;;;;;;;5.80;1.83;;;8.70;71.30;;;;;;4976435;28;20549;-72
2023/04/13 08:18:12;;;;;;;3.67;1.63;;;8.80;71.60;;;;;;4987047;28;20266;-72
2023/04/13 08:20:37;;;;;;;5.63;3.10;;;8.80;70.80;;;;;;4983045;28;20423;-71
2023/04/13 08:23:03;;;;;;;5.60;1.77;;;9.00;71.10;;;;;;4982672;28;20612;-73
2023/04/13 08:25:29;;;;;;;8.20;1.90;;;9.10;70.20;;;;;;4975177;28;20231;-73
2023/04/13 08:27:58;;;;;;;6.30;2.07;;;8.90;70.10;;;;;;4984812;28;20418;-74
2023/04/13 08:30:24;;;;;;;3.57;1.90;;;8.90;70.40;;;;;;4979569;28;20194;-73
2023/04/13 08:32:53;;;;;;;6.23;2.13;;;9.10;69.90;;;;;;4986975;28;20418;-72
2023/04/13 08:35:18;;;;;;;5.93;1.80;;;9.30;69.50;;;;;;4968472;28;20278;-73
2023/04/13 08:37:44;;;;;;;7.30;2.57;;;9.50;69.50;;;;;;4985242;28;20796;-73
2023/04/13 08:40:13;;;;;;;3.40;1.63;;;9.50;69.50;;;;;;4983857;28;20749;-72
2023/04/13 08:42:39;;;;;;;6.67;1.83;;;9.40;69.50;;;;;;4992271;28;20191;-74
2023/04/13 08:45:06;;;;;;;7.97;2.10;;;9.40;69.50;;;;;;4983643;28;20463;-74
2023/04/13 08:47:32;;;;;;;4.63;2.07;;;9.50;69.80;;;;;;4989798;28;20432;-72
2023/04/13 08:49:59;;;;;;;6.53;2.30;;;9.50;70.10;;;;;;4988246;28;20414;-73
2023/04/13 08:52:27;;;;;;;7.97;2.00;;;9.40;70.20;;;;;;4989083;28;20925;-72
2023/04/13 08:54:54;;;;;;;5.23;1.73;;;9.10;71.00;;;;;;4975167;28;20498;-73
2023/04/13 08:57:20;;;;;;;5.90;1.70;;;9.00;72.10;;;;;;4987356;28;20425;-71
2023/04/13 08:59:49;;;;;;;4.10;2.20;;;9.00;72.40;;;;;;4977259;28;20433;-72
2023/04/13 09:02:25;;;;;;;5.50;1.97;;;9.00;72.30;;;;;;4981307;28;20417;-73
2023/04/13 09:04:58;;;;;;;4.10;1.90;;;9.10;72.00;;;;;;4978705;28;20547;-73
2023/04/13 09:07:26;;;;;;;4.63;1.80;;;9.20;72.10;;;;;;4983981;28;20972;-73
2023/04/13 09:09:58;;;;;;;8.97;2.00;;;9.30;72.00;;;;;;4986467;28;20426;-74
2023/04/13 09:12:28;;;;;;;20.70;3.13;;;9.30;70.70;;;;;;4978546;28;20422;-72
2023/04/13 09:14:53;;;;;;;9.97;2.30;;;9.30;70.70;;;;;;4979139;28;20574;-71
2023/04/13 09:17:31;;;;;;;12.93;2.30;;;9.50;70.20;;;;;;4976691;28;20881;-72
2023/04/13 09:20:10;;;;;;;7.70;2.40;;;9.60;69.70;;;;;;4985165;28;20189;-73
2023/04/13 09:22:35;;;;;;;14.03;2.43;;;9.50;69.80;;;;;;4980517;28;20517;-73
2023/04/13 09:25:03;;;;;;;5.70;2.00;;;9.50;70.50;;;;;;4982197;28;20498;-72
2023/04/13 09:27:29;;;;;;;2.80;1.60;;;9.60;70.20;;;;;;4978933;28;20717;-72
2023/04/13 09:29:55;;;;;;;6.93;2.83;;;9.80;69.80;;;;;;4988898;28;20456;-72
2023/04/13 09:32:23;;;;;;;5.77;1.83;;;10.00;69.50;;;;;;4988447;28;20658;-72
2023/04/13 09:35:00;;;;;;;4.10;1.90;;;10.20;68.30;;;;;;4980334;28;20890;-73
2023/04/13 09:37:27;;;;;;;4.63;2.27;;;10.40;68.60;;;;;;4993092;28;20448;-72
2023/04/13 09:39:53;;;;;;;7.03;1.90;;;10.40;67.60;;;;;;4979363;28;20525;-73
2023/04/13 09:42:19;;;;;;;8.00;1.60;;;10.60;67.60;;;;;;4974802;28;20438;-73
2023/04/13 09:44:57;;;;;;;2.30;1.50;;;10.70;66.60;;;;;;4976911;28;20430;-73
2023/04/13 09:47:24;;;;;;;3.43;1.43;;;10.70;65.70;;;;;;4977950;28;20450;-73
2023/04/13 09:49:50;;;;;;;11.83;3.00;;;10.60;66.10;;;;;;4979537;28;20426;-72
2023/04/13 09:52:23;;;;;;;6.33;1.73;;;10.50;67.00;;;;;;4981380;28;20498;-73
2023/04/13 09:54:53;;;;;;;7.60;2.13;;;10.30;66.70;;;;;;4971124;28;20585;-73
2023/04/13 09:57:44;;;;;;;5.90;1.80;;;10.20;66.10;;;;;;4975449;28;20475;-72
2023/04/13 10:00:16;;;;;;;2.47;1.13;;;10.20;65.70;;;;;;4966780;28;20423;-73
2023/04/13 10:02:41;;;;;;;6.47;1.60;;;10.10;65.00;;;;;;4975611;28;20860;-72
2023/04/13 10:05:12;;;;;;;6.87;1.63;;;10.00;64.80;;;;;;4972910;28;20466;-72
2023/04/13 10:07:40;;;;;;;4.33;1.60;;;9.90;65.40;;;;;;4978628;28;21075;-72
2023/04/13 10:10:07;;;;;;;2.90;1.50;;;9.90;65.00;;;;;;4973476;28;20430;-72
2023/04/13 10:12:37;;;;;;;5.33;1.63;;;9.90;65.60;;;;;;4971242;28;20438;-74
2023/04/13 10:15:42;;;;;;;6.30;1.70;;;9.90;65.40;;;;;;4973162;28;21016;-74
2023/04/13 10:18:23;;;;;;;3.83;1.67;;;9.90;65.80;;;;;;4982738;28;20437;-72
2023/04/13 10:20:51;;;;;;;5.67;1.50;;;10.00;65.60;;;;;;4979372;28;20454;-73
2023/04/13 10:23:17;;;;;;;7.77;1.70;;;10.00;64.70;;;;;;4979039;28;20513;-72
2023/04/13 10:25:50;;;;;;;6.80;1.77;;;10.40;64.50;;;;;;4976773;28;20461;-72
2023/04/13 10:28:17;;;;;;;5.00;1.70;;;10.30;63.90;;;;;;4976302;28;20433;-72
2023/04/13 10:30:49;;;;;;;6.37;1.60;;;10.40;64.70;;;;;;4981227;28;20953;-73
2023/04/13 10:33:15;;;;;;;4.13;1.67;;;10.50;63.70;;;;;;4973022;28;20466;-72
2023/04/13 10:35:41;;;;;;;12.13;2.43;;;10.50;63.20;;;;;;4969800;28;20564;-72
2023/04/13 10:38:08;;;;;;;6.63;2.00;;;10.60;63.40;;;;;;4979602;28;20273;-72
2023/04/13 10:40:44;;;;;;;6.10;2.00;;;10.60;62.90;;;;;;4979128;28;20189;-72
2023/04/13 10:43:10;;;;;;;4.20;1.60;;;10.50;63.70;;;;;;4969280;28;20431;-72
2023/04/13 10:45:36;;;;;;;6.00;2.13;;;10.50;63.20;;;;;;4975086;28;20952;-71
2023/04/13 10:48:02;;;;;;;8.97;2.30;;;10.50;63.70;;;;;;4975116;28;20774;-72
2023/04/13 10:50:28;;;;;;;7.40;1.80;;;10.70;64.10;;;;;;4975181;28;20454;-71
2023/04/13 10:53:05;;;;;;;8.50;2.23;;;10.90;63.40;;;;;;4973333;28;20190;-72
2023/04/13 10:55:32;;;;;;;5.20;2.00;;;10.90;62.50;;;;;;4969396;28;20211;-72
2023/04/13 10:57:59;;;;;;;7.60;1.60;;;10.80;62.60;;;;;;4971528;28;20421;-72
2023/04/13 11:00:29;;;;;;;6.53;1.97;;;10.80;62.90;;;;;;4971767;28;21012;-72
2023/04/13 11:03:05;;;;;;;5.60;1.90;;;11.10;62.50;;;;;;4976921;28;20443;-72
2023/04/13 11:05:32;;;;;;;5.83;1.60;;;11.10;62.50;;;;;;4968088;28;20466;-72
2023/04/13 11:07:57;;;;;;;6.47;2.03;;;11.10;62.80;;;;;;4974870;28;20473;-72
2023/04/13 11:10:25;;;;;;;7.00;2.23;;;11.00;62.20;;;;;;4974842;28;20414;-72
2023/04/13 11:12:52;;;;;;;5.57;2.00;;;10.90;63.20;;;;;;4973176;28;20218;-73
2023/04/13 11:15:26;;;;;;;6.03;2.07;;;10.80;62.60;;;;;;4970359;28;21034;-72
2023/04/13 11:17:54;;;;;;;5.20;2.03;;;10.80;62.80;;;;;;4973086;28;20501;-72
2023/04/13 11:20:32;;;;;;;6.30;2.13;;;10.70;63.20;;;;;;4976665;28;20419;-72
2023/04/13 11:23:01;;;;;;;3.67;1.40;;;10.60;64.20;;;;;;4978795;28;20418;-72
2023/04/13 11:25:27;;;;;;;5.27;1.90;;;10.70;63.90;;;;;;4970440;28;20468;-71
2023/04/13 11:28:00;;;;;;;6.73;1.97;;;10.80;63.80;;;;;;4975153;28;21140;-72
2023/04/13 11:30:26;;;;;;;7.53;1.70;;;10.90;63.50;;;;;;4971380;28;20422;-71
2023/04/13 11:32:53;;;;;;;9.73;2.40;;;10.80;63.90;;;;;;4973551;28;20844;-73
2023/04/13 11:35:21;;;;;;;6.60;2.00;;;10.80;65.30;;;;;;4967697;28;20462;-72
2023/04/13 11:37:51;;;;;;;4.97;2.27;;;10.40;69.70;;;;;;4971411;28;20449;-73
2023/04/13 11:40:26;;;;;;;9.70;2.70;;;9.70;72.90;;;;;;4971848;28;20474;-73
2023/04/13 11:42:54;;;;;;;7.43;2.57;;;9.00;76.80;;;;;;4971204;28;20473;-73
2023/04/13 11:45:22;;;;;;;6.60;2.03;;;8.70;79.30;;;;;;4968906;28;21175;-73
2023/04/13 11:47:52;;;;;;;13.57;2.40;;;8.60;81.80;;;;;;4971222;28;20466;-73
2023/04/13 11:50:19;;;;;;;7.53;2.20;;;8.10;81.40;;;;;;4972117;28;20419;-73
2023/04/13 11:52:46;;;;;;;4.67;2.00;;;7.90;82.40;;;;;;4976695;28;20423;-72
2023/04/13 11:55:14;;;;;;;7.53;2.10;;;7.90;83.00;;;;;;4976892;28;20509;-72
2023/04/13 11:57:40;;;;;;;4.50;1.90;;;8.20;83.80;;;;;;4977134;28;20454;-73
2023/04/13 12:00:17;;;;;;;5.60;1.90;;;8.70;84.70;;;;;;4978262;28;20509;-71
2023/04/13 12:02:44;;;;;;;6.83;3.00;;;9.50;84.90;;;;;;4982660;28;20532;-72
2023/04/13 12:05:23;;;;;;;5.47;2.00;;;10.00;83.00;;;;;;4969877;28;20481;-72
2023/04/13 12:07:52;;;;;;;7.93;1.80;;;10.30;79.00;;;;;;4975034;28;20473;-73
2023/04/13 12:10:25;;;;;;;4.30;1.47;;;10.50;77.00;;;;;;4978290;28;20941;-73
2023/04/13 12:12:59;;;;;;;7.47;1.67;;;10.80;75.40;;;;;;4971213;28;20422;-73
2023/04/13 12:15:26;;;;;;;4.13;1.87;;;11.10;74.80;;;;;;4965574;28;20473;-73
2023/04/13 12:17:53;;;;;;;10.33;1.87;;;11.30;74.00;;;;;;4977615;28;20426;-72
2023/04/13 12:20:19;;;;;;;5.83;1.80;;;11.40;74.90;;;;;;4981437;28;20525;-73
2023/04/13 12:22:45;;;;;;;4.90;1.97;;;11.60;74.90;;;;;;4976567;28;20957;-72
2023/04/13 12:25:21;;;;;;;4.23;2.40;;;11.80;73.90;;;;;;4969673;28;20462;-73
2023/04/13 12:27:53;;;;;;;8.40;3.40;;;11.80;69.10;;;;;;4977029;28;20185;-73
2023/04/13 12:30:20;;;;;;;9.20;3.83;;;11.70;68.20;;;;;;4978403;28;20434;-72
2023/04/13 12:32:47;;;;;;;12.03;4.70;;;11.50;68.30;;;;;;4974605;28;20450;-71
2023/04/13 12:35:14;;;;;;;8.10;5.40;;;11.70;69.10;;;;;;4970332;28;20503;-72
2023/04/13 12:37:43;;;;;;;8.40;5.10;;;12.10;68.00;;;;;;4975724;28;20486;-71
2023/04/13 12:40:11;;;;;;;7.20;4.50;;;12.70;67.20;;;;;;4977366;28;20965;-72
2023/04/13 12:42:39;;;;;;;12.30;5.17;;;13.20;65.60;;;;;;4973687;28;20423;-72
2023/04/13 12:45:05;;;;;;;9.30;4.50;;;13.60;66.30;;;;;;4971874;28;20542;-72
2023/04/13 12:47:30;;;;;;;8.93;4.00;;;13.90;65.10;;;;;;4976501;28;20445;-72
2023/04/13 12:49:56;;;;;;;11.67;2.90;;;13.90;65.70;;;;;;4969141;28;20419;-72
2023/04/13 12:52:22;;;;;;;3.97;2.30;;;13.40;67.70;;;;;;4974661;28;20211;-74
2023/04/13 12:54:47;;;;;;;4.17;2.70;;;12.60;69.90;;;;;;4972948;28;20282;-72
2023/04/13 12:57:16;;;;;;;4.47;2.30;;;11.80;72.00;;;;;;4974556;28;20184;-73
2023/04/13 12:59:43;;;;;;;7.70;3.00;;;11.30;73.00;;;;;;4973675;28;20191;-71